sensor_id;sensor_type;location;lat;lon;timestamp;P1;durP1;ratioP1;P2;durP2;ratioP2
55559;SDS011;41414;53.250;6.514;2022-11-23T00:00:12;43.17;;;25.58;;
55559;SDS011;41414;53.250;6.514;2022-11-23T00:02:38;39.97;;;24.95;;
55559;SDS011;41414;53.250;6.514;2022-11-23T00:05:04;45.88;;;24.92;;
55559;SDS011;41414;53.250;6.514;2022-11-23T00:07:30;39.88;;;25.08;;
55559;SDS011;41414;53.250;6.514;2022-11-23T00:09:56;51.72;;;27.45;;
55559;SDS011;41414;53.250;6.514;2022-11-23T00:12:22;41.70;;;24.92;;
55559;SDS011;41414;53.250;6.514;2022-11-23T00:14:48;55.50;;;25.90;;
55559;SDS011;41414;53.250;6.514;2022-11-23T00:17:13;44.10;;;25.77;;
55559;SDS011;41414;53.250;6.514;2022-11-23T00:19:39;47.08;;;27.08;;
55559;SDS011;41414;53.250;6.514;2022-11-23T00:22:05;49.88;;;27.58;;
55559;SDS011;41414;53.250;6.514;2022-11-23T00:24:31;46.20;;;25.17;;
55559;SDS011;41414;53.250;6.514;2022-11-23T00:26:57;45.03;;;25.75;;
55559;SDS011;41414;53.250;6.514;2022-11-23T00:29:22;48.70;;;27.50;;
55559;SDS011;41414;53.250;6.514;2022-11-23T00:31:48;53.03;;;27.23;;
55559;SDS011;41414;53.250;6.514;2022-11-23T00:34:14;47.60;;;25.85;;
55559;SDS011;41414;53.250;6.514;2022-11-23T00:36:40;48.55;;;25.77;;
55559;SDS011;41414;53.250;6.514;2022-11-23T00:39:06;46.85;;;27.10;;
55559;SDS011;41414;53.250;6.514;2022-11-23T00:41:32;47.50;;;25.15;;
55559;SDS011;41414;53.250;6.514;2022-11-23T00:43:57;44.95;;;25.23;;
55559;SDS011;41414;53.250;6.514;2022-11-23T00:46:24;43.50;;;25.25;;
55559;SDS011;41414;53.250;6.514;2022-11-23T00:48:52;51.80;;;26.55;;
55559;SDS011;41414;53.250;6.514;2022-11-23T00:51:21;51.08;;;25.40;;
55559;SDS011;41414;53.250;6.514;2022-11-23T00:53:49;42.63;;;24.00;;
55559;SDS011;41414;53.250;6.514;2022-11-23T00:56:16;37.00;;;23.02;;
55559;SDS011;41414;53.250;6.514;2022-11-23T00:58:46;38.40;;;22.77;;
55559;SDS011;41414;53.250;6.514;2022-11-23T01:01:13;39.60;;;23.30;;
55559;SDS011;41414;53.250;6.514;2022-11-23T01:03:42;44.10;;;22.45;;
55559;SDS011;41414;53.250;6.514;2022-11-23T01:06:12;37.67;;;21.63;;
55559;SDS011;41414;53.250;6.514;2022-11-23T01:08:40;36.03;;;21.40;;
55559;SDS011;41414;53.250;6.514;2022-11-23T01:11:08;35.58;;;22.08;;
55559;SDS011;41414;53.250;6.514;2022-11-23T01:13:36;34.53;;;21.70;;
55559;SDS011;41414;53.250;6.514;2022-11-23T01:16:03;35.95;;;21.08;;
55559;SDS011;41414;53.250;6.514;2022-11-23T01:18:31;40.80;;;21.10;;
55559;SDS011;41414;53.250;6.514;2022-11-23T01:20:59;31.33;;;20.35;;
55559;SDS011;41414;53.250;6.514;2022-11-23T01:23:27;36.75;;;21.23;;
55559;SDS011;41414;53.250;6.514;2022-11-23T01:25:54;33.60;;;21.08;;
55559;SDS011;41414;53.250;6.514;2022-11-23T01:28:20;36.20;;;20.90;;
55559;SDS011;41414;53.250;6.514;2022-11-23T01:30:46;34.58;;;20.83;;
55559;SDS011;41414;53.250;6.514;2022-11-23T01:33:12;32.78;;;20.25;;
55559;SDS011;41414;53.250;6.514;2022-11-23T01:35:38;37.83;;;20.63;;
55559;SDS011;41414;53.250;6.514;2022-11-23T01:38:03;32.03;;;20.60;;
55559;SDS011;41414;53.250;6.514;2022-11-23T01:40:30;31.98;;;20.08;;
55559;SDS011;41414;53.250;6.514;2022-11-23T01:43:03;34.17;;;20.33;;
55559;SDS011;41414;53.250;6.514;2022-11-23T01:45:37;33.80;;;19.65;;
55559;SDS011;41414;53.250;6.514;2022-11-23T01:48:10;42.10;;;19.73;;
55559;SDS011;41414;53.250;6.514;2022-11-23T01:50:40;34.72;;;20.70;;
55559;SDS011;41414;53.250;6.514;2022-11-23T01:53:07;36.47;;;20.27;;
55559;SDS011;41414;53.250;6.514;2022-11-23T01:55:33;32.03;;;18.95;;
55559;SDS011;41414;53.250;6.514;2022-11-23T01:57:59;35.22;;;20.30;;
55559;SDS011;41414;53.250;6.514;2022-11-23T02:00:26;39.33;;;18.98;;
55559;SDS011;41414;53.250;6.514;2022-11-23T02:02:54;29.17;;;18.98;;
55559;SDS011;41414;53.250;6.514;2022-11-23T02:05:24;35.47;;;18.95;;
55559;SDS011;41414;53.250;6.514;2022-11-23T02:08:02;33.25;;;17.15;;
55559;SDS011;41414;53.250;6.514;2022-11-23T02:10:30;28.30;;;17.27;;
55559;SDS011;41414;53.250;6.514;2022-11-23T02:12:59;34.67;;;18.38;;
55559;SDS011;41414;53.250;6.514;2022-11-23T02:15:27;40.28;;;19.67;;
55559;SDS011;41414;53.250;6.514;2022-11-23T02:17:53;26.58;;;17.70;;
55559;SDS011;41414;53.250;6.514;2022-11-23T02:20:19;31.45;;;18.23;;
55559;SDS011;41414;53.250;6.514;2022-11-23T02:25:18;30.23;;;18.20;;
55559;SDS011;41414;53.250;6.514;2022-11-23T02:28:17;40.95;;;19.90;;
55559;SDS011;41414;53.250;6.514;2022-11-23T02:30:47;33.95;;;18.85;;
55559;SDS011;41414;53.250;6.514;2022-11-23T02:33:15;33.25;;;19.42;;
55559;SDS011;41414;53.250;6.514;2022-11-23T02:35:48;39.00;;;19.67;;
55559;SDS011;41414;53.250;6.514;2022-11-23T02:38:16;31.25;;;19.05;;
55559;SDS011;41414;53.250;6.514;2022-11-23T02:40:43;35.88;;;18.80;;
55559;SDS011;41414;53.250;6.514;2022-11-23T02:43:09;36.00;;;19.30;;
55559;SDS011;41414;53.250;6.514;2022-11-23T02:45:37;32.25;;;20.70;;
55559;SDS011;41414;53.250;6.514;2022-11-23T02:48:09;38.42;;;19.38;;
55559;SDS011;41414;53.250;6.514;2022-11-23T02:50:35;42.65;;;19.55;;
55559;SDS011;41414;53.250;6.514;2022-11-23T02:53:01;37.20;;;20.85;;
55559;SDS011;41414;53.250;6.514;2022-11-23T02:55:27;35.58;;;20.73;;
55559;SDS011;41414;53.250;6.514;2022-11-23T02:57:53;36.58;;;19.52;;
55559;SDS011;41414;53.250;6.514;2022-11-23T03:00:19;35.90;;;20.52;;
55559;SDS011;41414;53.250;6.514;2022-11-23T03:02:45;42.88;;;21.27;;
55559;SDS011;41414;53.250;6.514;2022-11-23T03:05:10;33.85;;;19.40;;
55559;SDS011;41414;53.250;6.514;2022-11-23T03:07:36;33.10;;;19.63;;
55559;SDS011;41414;53.250;6.514;2022-11-23T03:10:02;38.80;;;21.15;;
55559;SDS011;41414;53.250;6.514;2022-11-23T03:12:29;36.80;;;19.95;;
55559;SDS011;41414;53.250;6.514;2022-11-23T03:14:54;34.72;;;21.40;;
55559;SDS011;41414;53.250;6.514;2022-11-23T03:17:20;36.53;;;20.15;;
55559;SDS011;41414;53.250;6.514;2022-11-23T03:19:46;35.55;;;20.77;;
55559;SDS011;41414;53.250;6.514;2022-11-23T03:22:12;33.28;;;19.48;;
55559;SDS011;41414;53.250;6.514;2022-11-23T03:24:38;31.88;;;19.63;;
55559;SDS011;41414;53.250;6.514;2022-11-23T03:27:04;35.10;;;20.17;;
55559;SDS011;41414;53.250;6.514;2022-11-23T03:29:29;35.33;;;20.00;;
55559;SDS011;41414;53.250;6.514;2022-11-23T03:31:55;31.20;;;18.02;;
55559;SDS011;41414;53.250;6.514;2022-11-23T03:34:21;39.75;;;20.70;;
55559;SDS011;41414;53.250;6.514;2022-11-23T03:36:48;37.58;;;19.50;;
55559;SDS011;41414;53.250;6.514;2022-11-23T03:39:13;34.88;;;20.33;;
55559;SDS011;41414;53.250;6.514;2022-11-23T03:41:39;40.03;;;20.33;;
55559;SDS011;41414;53.250;6.514;2022-11-23T03:44:05;32.15;;;19.80;;
55559;SDS011;41414;53.250;6.514;2022-11-23T03:46:31;34.67;;;19.02;;
55559;SDS011;41414;53.250;6.514;2022-11-23T03:48:57;38.35;;;20.15;;
55559;SDS011;41414;53.250;6.514;2022-11-23T03:51:22;39.47;;;20.45;;
55559;SDS011;41414;53.250;6.514;2022-11-23T03:53:48;36.85;;;21.33;;
55559;SDS011;41414;53.250;6.514;2022-11-23T03:56:14;39.75;;;21.08;;
55559;SDS011;41414;53.250;6.514;2022-11-23T03:58:40;34.35;;;21.27;;
55559;SDS011;41414;53.250;6.514;2022-11-23T04:01:06;40.83;;;22.23;;
55559;SDS011;41414;53.250;6.514;2022-11-23T04:03:32;42.83;;;20.63;;
55559;SDS011;41414;53.250;6.514;2022-11-23T04:05:58;40.55;;;21.27;;
55559;SDS011;41414;53.250;6.514;2022-11-23T04:08:24;37.75;;;19.95;;
55559;SDS011;41414;53.250;6.514;2022-11-23T04:10:50;40.78;;;20.90;;
55559;SDS011;41414;53.250;6.514;2022-11-23T04:13:16;37.30;;;21.33;;
55559;SDS011;41414;53.250;6.514;2022-11-23T04:15:42;42.60;;;22.70;;
55559;SDS011;41414;53.250;6.514;2022-11-23T04:18:08;47.08;;;21.92;;
55559;SDS011;41414;53.250;6.514;2022-11-23T04:20:33;40.42;;;21.10;;
55559;SDS011;41414;53.250;6.514;2022-11-23T04:22:59;44.53;;;22.55;;
55559;SDS011;41414;53.250;6.514;2022-11-23T04:25:25;44.92;;;23.98;;
55559;SDS011;41414;53.250;6.514;2022-11-23T04:27:51;46.50;;;22.70;;
55559;SDS011;41414;53.250;6.514;2022-11-23T04:30:17;49.35;;;23.77;;
55559;SDS011;41414;53.250;6.514;2022-11-23T04:32:44;51.45;;;24.27;;
55559;SDS011;41414;53.250;6.514;2022-11-23T04:35:10;46.28;;;22.48;;
55559;SDS011;41414;53.250;6.514;2022-11-23T04:37:36;50.17;;;24.33;;
55559;SDS011;41414;53.250;6.514;2022-11-23T04:40:01;41.25;;;22.15;;
55559;SDS011;41414;53.250;6.514;2022-11-23T04:42:28;51.35;;;25.95;;
55559;SDS011;41414;53.250;6.514;2022-11-23T04:44:53;46.88;;;24.27;;
55559;SDS011;41414;53.250;6.514;2022-11-23T04:47:21;43.85;;;23.77;;
55559;SDS011;41414;53.250;6.514;2022-11-23T04:49:47;53.13;;;25.23;;
55559;SDS011;41414;53.250;6.514;2022-11-23T04:52:13;54.35;;;25.73;;
55559;SDS011;41414;53.250;6.514;2022-11-23T04:54:39;51.58;;;25.30;;
55559;SDS011;41414;53.250;6.514;2022-11-23T04:57:05;54.00;;;27.13;;
55559;SDS011;41414;53.250;6.514;2022-11-23T04:59:31;54.47;;;26.60;;
55559;SDS011;41414;53.250;6.514;2022-11-23T05:01:56;52.92;;;24.83;;
55559;SDS011;41414;53.250;6.514;2022-11-23T05:04:22;59.95;;;27.58;;
55559;SDS011;41414;53.250;6.514;2022-11-23T05:06:48;52.63;;;27.33;;
55559;SDS011;41414;53.250;6.514;2022-11-23T05:09:14;54.22;;;27.70;;
55559;SDS011;41414;53.250;6.514;2022-11-23T05:11:40;58.90;;;27.30;;
55559;SDS011;41414;53.250;6.514;2022-11-23T05:14:06;52.97;;;25.98;;
55559;SDS011;41414;53.250;6.514;2022-11-23T05:16:32;61.35;;;28.00;;
55559;SDS011;41414;53.250;6.514;2022-11-23T05:18:58;58.88;;;26.27;;
55559;SDS011;41414;53.250;6.514;2022-11-23T05:21:24;57.92;;;27.85;;
55559;SDS011;41414;53.250;6.514;2022-11-23T05:23:49;51.80;;;26.55;;
55559;SDS011;41414;53.250;6.514;2022-11-23T05:26:15;50.63;;;25.08;;
55559;SDS011;41414;53.250;6.514;2022-11-23T05:28:41;63.50;;;30.33;;
55559;SDS011;41414;53.250;6.514;2022-11-23T05:31:07;59.63;;;29.02;;
55559;SDS011;41414;53.250;6.514;2022-11-23T05:33:34;58.25;;;28.40;;
55559;SDS011;41414;53.250;6.514;2022-11-23T05:36:00;52.05;;;26.30;;
55559;SDS011;41414;53.250;6.514;2022-11-23T05:38:25;57.58;;;28.65;;
55559;SDS011;41414;53.250;6.514;2022-11-23T05:40:51;53.78;;;27.05;;
55559;SDS011;41414;53.250;6.514;2022-11-23T05:43:17;55.25;;;26.95;;
55559;SDS011;41414;53.250;6.514;2022-11-23T05:45:43;57.20;;;28.70;;
55559;SDS011;41414;53.250;6.514;2022-11-23T05:48:09;51.55;;;27.10;;
55559;SDS011;41414;53.250;6.514;2022-11-23T05:50:35;56.47;;;28.95;;
55559;SDS011;41414;53.250;6.514;2022-11-23T05:53:01;60.30;;;26.52;;
55559;SDS011;41414;53.250;6.514;2022-11-23T05:55:27;58.15;;;27.27;;
55559;SDS011;41414;53.250;6.514;2022-11-23T05:57:52;49.60;;;26.77;;
55559;SDS011;41414;53.250;6.514;2022-11-23T06:00:18;57.67;;;29.20;;
55559;SDS011;41414;53.250;6.514;2022-11-23T06:02:44;53.92;;;27.48;;
55559;SDS011;41414;53.250;6.514;2022-11-23T06:05:10;52.47;;;28.73;;
55559;SDS011;41414;53.250;6.514;2022-11-23T06:07:36;60.55;;;28.67;;
55559;SDS011;41414;53.250;6.514;2022-11-23T06:10:03;56.88;;;28.95;;
55559;SDS011;41414;53.250;6.514;2022-11-23T06:12:29;56.70;;;27.48;;
55559;SDS011;41414;53.250;6.514;2022-11-23T06:14:56;51.97;;;26.77;;
55559;SDS011;41414;53.250;6.514;2022-11-23T06:17:21;50.90;;;25.40;;
55559;SDS011;41414;53.250;6.514;2022-11-23T06:19:48;55.10;;;27.52;;
55559;SDS011;41414;53.250;6.514;2022-11-23T06:22:14;49.50;;;26.38;;
55559;SDS011;41414;53.250;6.514;2022-11-23T06:24:40;47.05;;;25.83;;
55559;SDS011;41414;53.250;6.514;2022-11-23T06:27:06;57.17;;;28.08;;
55559;SDS011;41414;53.250;6.514;2022-11-23T06:29:32;41.80;;;23.90;;
55559;SDS011;41414;53.250;6.514;2022-11-23T06:31:58;59.13;;;28.27;;
55559;SDS011;41414;53.250;6.514;2022-11-23T06:34:24;51.35;;;26.33;;
55559;SDS011;41414;53.250;6.514;2022-11-23T06:36:50;42.55;;;23.77;;
55559;SDS011;41414;53.250;6.514;2022-11-23T06:39:15;48.78;;;25.48;;
55559;SDS011;41414;53.250;6.514;2022-11-23T06:41:43;44.75;;;23.15;;
55559;SDS011;41414;53.250;6.514;2022-11-23T06:44:08;44.72;;;23.95;;
55559;SDS011;41414;53.250;6.514;2022-11-23T06:46:34;48.08;;;24.20;;
55559;SDS011;41414;53.250;6.514;2022-11-23T06:49:00;39.53;;;23.08;;
55559;SDS011;41414;53.250;6.514;2022-11-23T06:51:26;41.17;;;22.73;;
55559;SDS011;41414;53.250;6.514;2022-11-23T06:53:52;42.55;;;21.70;;
55559;SDS011;41414;53.250;6.514;2022-11-23T06:56:18;42.47;;;22.08;;
55559;SDS011;41414;53.250;6.514;2022-11-23T06:58:43;43.30;;;21.92;;
55559;SDS011;41414;53.250;6.514;2022-11-23T07:01:09;42.42;;;21.48;;
55559;SDS011;41414;53.250;6.514;2022-11-23T07:03:35;41.72;;;20.17;;
55559;SDS011;41414;53.250;6.514;2022-11-23T07:06:03;39.33;;;20.48;;
55559;SDS011;41414;53.250;6.514;2022-11-23T07:08:30;41.90;;;19.50;;
55559;SDS011;41414;53.250;6.514;2022-11-23T07:11:02;35.78;;;18.90;;
55559;SDS011;41414;53.250;6.514;2022-11-23T07:13:31;34.20;;;18.40;;
55559;SDS011;41414;53.250;6.514;2022-11-23T07:15:57;36.67;;;17.73;;
55559;SDS011;41414;53.250;6.514;2022-11-23T07:18:24;35.90;;;18.10;;
55559;SDS011;41414;53.250;6.514;2022-11-23T07:20:50;36.92;;;18.25;;
55559;SDS011;41414;53.250;6.514;2022-11-23T07:23:16;36.17;;;18.67;;
55559;SDS011;41414;53.250;6.514;2022-11-23T07:25:42;30.13;;;16.48;;
55559;SDS011;41414;53.250;6.514;2022-11-23T07:28:09;28.00;;;16.50;;
55559;SDS011;41414;53.250;6.514;2022-11-23T07:30:36;31.00;;;15.93;;
55559;SDS011;41414;53.250;6.514;2022-11-23T07:33:03;29.77;;;15.57;;
55559;SDS011;41414;53.250;6.514;2022-11-23T07:35:32;25.30;;;15.52;;
55559;SDS011;41414;53.250;6.514;2022-11-23T07:37:58;29.95;;;16.60;;
55559;SDS011;41414;53.250;6.514;2022-11-23T07:40:25;25.17;;;14.73;;
55559;SDS011;41414;53.250;6.514;2022-11-23T07:42:51;29.75;;;14.75;;
55559;SDS011;41414;53.250;6.514;2022-11-23T07:45:17;28.38;;;14.07;;
55559;SDS011;41414;53.250;6.514;2022-11-23T07:47:43;25.08;;;14.13;;
55559;SDS011;41414;53.250;6.514;2022-11-23T07:50:10;27.60;;;13.15;;
55559;SDS011;41414;53.250;6.514;2022-11-23T07:52:37;27.00;;;13.98;;
55559;SDS011;41414;53.250;6.514;2022-11-23T07:55:04;30.02;;;14.57;;
55559;SDS011;41414;53.250;6.514;2022-11-23T07:57:30;22.85;;;12.80;;
55559;SDS011;41414;53.250;6.514;2022-11-23T07:59:56;28.00;;;13.60;;
55559;SDS011;41414;53.250;6.514;2022-11-23T08:02:23;25.65;;;13.77;;
55559;SDS011;41414;53.250;6.514;2022-11-23T08:04:48;30.63;;;13.15;;
55559;SDS011;41414;53.250;6.514;2022-11-23T08:07:14;23.98;;;13.38;;
55559;SDS011;41414;53.250;6.514;2022-11-23T08:09:40;28.30;;;13.52;;
55559;SDS011;41414;53.250;6.514;2022-11-23T08:12:06;28.50;;;13.48;;
55559;SDS011;41414;53.250;6.514;2022-11-23T08:14:32;25.05;;;11.98;;
55559;SDS011;41414;53.250;6.514;2022-11-23T08:16:58;29.27;;;13.15;;
55559;SDS011;41414;53.250;6.514;2022-11-23T08:19:24;25.25;;;12.63;;
55559;SDS011;41414;53.250;6.514;2022-11-23T08:21:50;22.05;;;11.85;;
55559;SDS011;41414;53.250;6.514;2022-11-23T08:24:15;20.98;;;10.73;;
55559;SDS011;41414;53.250;6.514;2022-11-23T08:26:41;26.55;;;13.20;;
55559;SDS011;41414;53.250;6.514;2022-11-23T08:29:07;21.02;;;12.07;;
55559;SDS011;41414;53.250;6.514;2022-11-23T08:31:33;24.17;;;10.52;;
55559;SDS011;41414;53.250;6.514;2022-11-23T08:33:59;22.95;;;11.25;;
55559;SDS011;41414;53.250;6.514;2022-11-23T08:36:24;20.25;;;10.02;;
55559;SDS011;41414;53.250;6.514;2022-11-23T08:38:50;26.13;;;10.35;;
55559;SDS011;41414;53.250;6.514;2022-11-23T08:41:17;20.13;;;10.07;;
55559;SDS011;41414;53.250;6.514;2022-11-23T08:43:46;21.02;;;10.55;;
55559;SDS011;41414;53.250;6.514;2022-11-23T08:46:12;18.48;;;10.25;;
55559;SDS011;41414;53.250;6.514;2022-11-23T08:48:38;19.00;;;9.85;;
55559;SDS011;41414;53.250;6.514;2022-11-23T08:51:04;22.15;;;10.90;;
55559;SDS011;41414;53.250;6.514;2022-11-23T08:53:30;17.95;;;9.07;;
55559;SDS011;41414;53.250;6.514;2022-11-23T08:55:59;26.13;;;10.90;;
55559;SDS011;41414;53.250;6.514;2022-11-23T08:58:25;18.02;;;10.00;;
55559;SDS011;41414;53.250;6.514;2022-11-23T09:00:51;23.70;;;9.98;;
55559;SDS011;41414;53.250;6.514;2022-11-23T09:03:17;22.25;;;9.00;;
55559;SDS011;41414;53.250;6.514;2022-11-23T09:05:43;20.15;;;9.90;;
55559;SDS011;41414;53.250;6.514;2022-11-23T09:08:09;21.20;;;8.65;;
55559;SDS011;41414;53.250;6.514;2022-11-23T09:10:35;17.30;;;9.68;;
55559;SDS011;41414;53.250;6.514;2022-11-23T09:13:01;24.45;;;9.65;;
55559;SDS011;41414;53.250;6.514;2022-11-23T09:15:27;18.33;;;9.68;;
55559;SDS011;41414;53.250;6.514;2022-11-23T09:17:55;23.90;;;9.70;;
55559;SDS011;41414;53.250;6.514;2022-11-23T09:20:21;18.38;;;8.27;;
55559;SDS011;41414;53.250;6.514;2022-11-23T09:22:52;19.85;;;8.70;;
55559;SDS011;41414;53.250;6.514;2022-11-23T09:25:18;30.65;;;8.93;;
55559;SDS011;41414;53.250;6.514;2022-11-23T09:27:45;21.33;;;9.20;;
55559;SDS011;41414;53.250;6.514;2022-11-23T09:30:11;20.90;;;9.45;;
55559;SDS011;41414;53.250;6.514;2022-11-23T09:32:37;18.27;;;8.50;;
55559;SDS011;41414;53.250;6.514;2022-11-23T09:35:03;17.75;;;8.02;;
55559;SDS011;41414;53.250;6.514;2022-11-23T09:37:30;19.35;;;8.43;;
55559;SDS011;41414;53.250;6.514;2022-11-23T09:39:55;21.58;;;9.02;;
55559;SDS011;41414;53.250;6.514;2022-11-23T09:42:40;21.23;;;8.13;;
55559;SDS011;41414;53.250;6.514;2022-11-23T09:45:38;17.38;;;8.23;;
55559;SDS011;41414;53.250;6.514;2022-11-23T09:48:24;21.40;;;8.15;;
55559;SDS011;41414;53.250;6.514;2022-11-23T09:51:14;18.45;;;7.95;;
55559;SDS011;41414;53.250;6.514;2022-11-23T09:53:44;22.17;;;7.78;;
55559;SDS011;41414;53.250;6.514;2022-11-23T09:56:18;18.20;;;7.85;;
55559;SDS011;41414;53.250;6.514;2022-11-23T09:58:53;15.70;;;7.60;;
55559;SDS011;41414;53.250;6.514;2022-11-23T10:01:20;13.07;;;6.97;;
55559;SDS011;41414;53.250;6.514;2022-11-23T10:03:46;16.63;;;7.05;;
55559;SDS011;41414;53.250;6.514;2022-11-23T10:09:00;18.27;;;7.10;;
55559;SDS011;41414;53.250;6.514;2022-11-23T10:23:00;19.77;;;7.07;;
55559;SDS011;41414;53.250;6.514;2022-11-23T10:25:32;14.05;;;6.85;;
55559;SDS011;41414;53.250;6.514;2022-11-23T10:28:05;22.52;;;6.75;;
55559;SDS011;41414;53.250;6.514;2022-11-23T10:30:38;16.88;;;7.03;;
55559;SDS011;41414;53.250;6.514;2022-11-23T10:33:37;17.77;;;7.20;;
55559;SDS011;41414;53.250;6.514;2022-11-23T10:35:54;11.85;;;7.07;;
55559;SDS011;41414;53.250;6.514;2022-11-23T10:38:20;14.50;;;7.25;;
55559;SDS011;41414;53.250;6.514;2022-11-23T10:41:00;19.83;;;7.45;;
55559;SDS011;41414;53.250;6.514;2022-11-23T10:43:31;16.50;;;6.43;;
55559;SDS011;41414;53.250;6.514;2022-11-23T10:48:50;14.45;;;6.53;;
55559;SDS011;41414;53.250;6.514;2022-11-23T10:51:20;17.95;;;6.85;;
55559;SDS011;41414;53.250;6.514;2022-11-23T10:53:52;20.63;;;7.60;;
55559;SDS011;41414;53.250;6.514;2022-11-23T10:56:22;19.13;;;7.35;;
55559;SDS011;41414;53.250;6.514;2022-11-23T10:58:49;14.23;;;6.88;;
55559;SDS011;41414;53.250;6.514;2022-11-23T11:01:16;16.52;;;6.20;;
55559;SDS011;41414;53.250;6.514;2022-11-23T11:03:47;18.05;;;6.68;;
55559;SDS011;41414;53.250;6.514;2022-11-23T11:06:29;13.43;;;6.03;;
55559;SDS011;41414;53.250;6.514;2022-11-23T11:08:59;18.65;;;6.68;;
55559;SDS011;41414;53.250;6.514;2022-11-23T11:11:29;21.58;;;6.93;;
55559;SDS011;41414;53.250;6.514;2022-11-23T11:14:16;14.95;;;6.25;;
55559;SDS011;41414;53.250;6.514;2022-11-23T11:16:50;15.23;;;5.80;;
55559;SDS011;41414;53.250;6.514;2022-11-23T11:21:51;15.20;;;5.97;;
55559;SDS011;41414;53.250;6.514;2022-11-23T11:24:18;17.08;;;5.28;;
55559;SDS011;41414;53.250;6.514;2022-11-23T11:26:48;13.82;;;4.60;;
55559;SDS011;41414;53.250;6.514;2022-11-23T11:29:27;14.95;;;6.03;;
55559;SDS011;41414;53.250;6.514;2022-11-23T11:32:02;12.80;;;5.05;;
55559;SDS011;41414;53.250;6.514;2022-11-23T11:34:42;14.25;;;5.22;;
55559;SDS011;41414;53.250;6.514;2022-11-23T11:39:48;14.05;;;4.45;;
55559;SDS011;41414;53.250;6.514;2022-11-23T11:42:20;18.35;;;4.07;;
55559;SDS011;41414;53.250;6.514;2022-11-23T11:44:54;11.27;;;3.63;;
55559;SDS011;41414;53.250;6.514;2022-11-23T11:47:28;14.57;;;4.57;;
55559;SDS011;41414;53.250;6.514;2022-11-23T11:49:58;11.85;;;3.50;;
55559;SDS011;41414;53.250;6.514;2022-11-23T11:52:28;14.80;;;3.97;;
55559;SDS011;41414;53.250;6.514;2022-11-23T11:55:00;10.82;;;3.67;;
55559;SDS011;41414;53.250;6.514;2022-11-23T11:57:43;11.32;;;3.40;;
55559;SDS011;41414;53.250;6.514;2022-11-23T12:00:14;9.75;;;3.22;;
55559;SDS011;41414;53.250;6.514;2022-11-23T12:02:48;15.13;;;3.85;;
55559;SDS011;41414;53.250;6.514;2022-11-23T12:05:23;11.00;;;3.50;;
55559;SDS011;41414;53.250;6.514;2022-11-23T12:08:00;16.60;;;4.18;;
55559;SDS011;41414;53.250;6.514;2022-11-23T12:10:35;18.40;;;3.85;;
55559;SDS011;41414;53.250;6.514;2022-11-23T12:13:03;10.27;;;3.35;;
55559;SDS011;41414;53.250;6.514;2022-11-23T12:15:31;12.07;;;3.92;;
55559;SDS011;41414;53.250;6.514;2022-11-23T12:23:43;16.73;;;3.78;;
55559;SDS011;41414;53.250;6.514;2022-11-23T12:26:23;15.13;;;3.20;;
55559;SDS011;41414;53.250;6.514;2022-11-23T12:29:17;11.23;;;3.50;;
55559;SDS011;41414;53.250;6.514;2022-11-23T12:32:08;12.45;;;3.50;;
55559;SDS011;41414;53.250;6.514;2022-11-23T12:37:24;9.35;;;3.25;;
55559;SDS011;41414;53.250;6.514;2022-11-23T12:40:09;10.73;;;2.90;;
55559;SDS011;41414;53.250;6.514;2022-11-23T12:42:40;13.73;;;3.58;;
55559;SDS011;41414;53.250;6.514;2022-11-23T12:53:49;12.55;;;4.00;;
55559;SDS011;41414;53.250;6.514;2022-11-23T12:59:07;14.38;;;3.28;;
55559;SDS011;41414;53.250;6.514;2022-11-23T13:01:36;11.68;;;2.85;;
55559;SDS011;41414;53.250;6.514;2022-11-23T13:06:41;11.30;;;2.33;;
55559;SDS011;41414;53.250;6.514;2022-11-23T13:09:50;12.77;;;3.55;;
55559;SDS011;41414;53.250;6.514;2022-11-23T13:17:54;10.85;;;3.10;;
55559;SDS011;41414;53.250;6.514;2022-11-23T13:23:36;9.70;;;2.05;;
55559;SDS011;41414;53.250;6.514;2022-11-23T13:26:11;14.23;;;2.40;;
55559;SDS011;41414;53.250;6.514;2022-11-23T13:28:38;12.98;;;2.95;;
55559;SDS011;41414;53.250;6.514;2022-11-23T13:33:39;14.55;;;4.13;;
55559;SDS011;41414;53.250;6.514;2022-11-23T13:36:08;9.55;;;2.17;;
55559;SDS011;41414;53.250;6.514;2022-11-23T13:38:37;8.73;;;2.25;;
55559;SDS011;41414;53.250;6.514;2022-11-23T13:44:11;14.65;;;2.50;;
55559;SDS011;41414;53.250;6.514;2022-11-23T13:46:42;9.55;;;2.65;;
55559;SDS011;41414;53.250;6.514;2022-11-23T13:52:05;12.70;;;3.28;;
55559;SDS011;41414;53.250;6.514;2022-11-23T13:54:54;9.85;;;2.15;;
55559;SDS011;41414;53.250;6.514;2022-11-23T13:57:21;9.40;;;2.60;;
55559;SDS011;41414;53.250;6.514;2022-11-23T13:59:47;8.07;;;2.60;;
55559;SDS011;41414;53.250;6.514;2022-11-23T14:02:25;10.10;;;2.28;;
55559;SDS011;41414;53.250;6.514;2022-11-23T14:05:27;11.68;;;2.75;;
55559;SDS011;41414;53.250;6.514;2022-11-23T14:08:15;10.48;;;2.33;;
55559;SDS011;41414;53.250;6.514;2022-11-23T14:10:43;9.40;;;2.47;;
55559;SDS011;41414;53.250;6.514;2022-11-23T14:13:13;7.95;;;1.83;;
55559;SDS011;41414;53.250;6.514;2022-11-23T14:15:44;8.95;;;2.33;;
55559;SDS011;41414;53.250;6.514;2022-11-23T14:21:10;10.82;;;2.20;;
55559;SDS011;41414;53.250;6.514;2022-11-23T14:23:45;11.48;;;2.50;;
55559;SDS011;41414;53.250;6.514;2022-11-23T14:29:08;8.97;;;1.83;;
55559;SDS011;41414;53.250;6.514;2022-11-23T14:31:57;9.35;;;2.20;;
55559;SDS011;41414;53.250;6.514;2022-11-23T14:37:24;7.82;;;1.65;;
55559;SDS011;41414;53.250;6.514;2022-11-23T14:40:47;7.50;;;2.33;;
55559;SDS011;41414;53.250;6.514;2022-11-23T14:43:00;9.40;;;2.22;;
55559;SDS011;41414;53.250;6.514;2022-11-23T14:45:30;12.13;;;2.00;;
55559;SDS011;41414;53.250;6.514;2022-11-23T14:50:52;6.75;;;2.22;;
55559;SDS011;41414;53.250;6.514;2022-11-23T14:53:20;9.88;;;2.28;;
55559;SDS011;41414;53.250;6.514;2022-11-23T14:55:49;11.27;;;2.50;;
55559;SDS011;41414;53.250;6.514;2022-11-23T14:58:16;9.93;;;2.03;;
55559;SDS011;41414;53.250;6.514;2022-11-23T15:00:42;11.25;;;2.53;;
55559;SDS011;41414;53.250;6.514;2022-11-23T15:05:47;12.70;;;3.35;;
55559;SDS011;41414;53.250;6.514;2022-11-23T15:08:24;10.30;;;2.47;;
55559;SDS011;41414;53.250;6.514;2022-11-23T15:13:28;9.02;;;2.05;;
55559;SDS011;41414;53.250;6.514;2022-11-23T15:15:56;5.53;;;1.92;;
55559;SDS011;41414;53.250;6.514;2022-11-23T15:18:30;14.30;;;2.85;;
55559;SDS011;41414;53.250;6.514;2022-11-23T15:20:59;11.23;;;2.08;;
55559;SDS011;41414;53.250;6.514;2022-11-23T15:23:31;13.60;;;2.97;;
55559;SDS011;41414;53.250;6.514;2022-11-23T15:26:02;8.90;;;2.25;;
55559;SDS011;41414;53.250;6.514;2022-11-23T15:28:31;10.63;;;2.97;;
55559;SDS011;41414;53.250;6.514;2022-11-23T15:31:00;7.65;;;2.30;;
55559;SDS011;41414;53.250;6.514;2022-11-23T15:33:25;6.53;;;1.90;;
55559;SDS011;41414;53.250;6.514;2022-11-23T15:35:52;8.18;;;3.55;;
55559;SDS011;41414;53.250;6.514;2022-11-23T15:38:19;7.18;;;2.53;;
55559;SDS011;41414;53.250;6.514;2022-11-23T15:40:47;9.65;;;2.83;;
55559;SDS011;41414;53.250;6.514;2022-11-23T15:43:15;13.07;;;2.85;;
55559;SDS011;41414;53.250;6.514;2022-11-23T15:48:10;7.20;;;2.35;;
55559;SDS011;41414;53.250;6.514;2022-11-23T15:50:44;13.60;;;2.75;;
55559;SDS011;41414;53.250;6.514;2022-11-23T15:53:15;10.88;;;2.72;;
55559;SDS011;41414;53.250;6.514;2022-11-23T15:55:41;13.65;;;2.28;;
55559;SDS011;41414;53.250;6.514;2022-11-23T15:58:07;10.57;;;2.58;;
55559;SDS011;41414;53.250;6.514;2022-11-23T16:00:38;10.77;;;2.90;;